createdAt,value
2022-08-01T00:00:09.204Z,22.40
2022-08-01T00:02:37.132Z,22.39
2022-08-01T00:05:05.644Z,22.26
2022-08-01T00:07:32.811Z,22.27
2022-08-01T00:09:59.553Z,22.29
2022-08-01T00:12:26.242Z,22.27
2022-08-01T00:14:53.168Z,22.27
2022-08-01T00:17:19.740Z,22.24
2022-08-01T00:19:46.344Z,22.23
2022-08-01T00:22:12.967Z,22.08
2022-08-01T00:24:39.566Z,22.09
2022-08-01T00:27:06.260Z,22.10
2022-08-01T00:30:11.765Z,22.09
2022-08-01T00:32:19.896Z,22.07
2022-08-01T00:34:46.577Z,22.04
2022-08-01T00:37:14.075Z,22.01
2022-08-01T00:39:43.053Z,21.92
2022-08-01T00:42:11.588Z,21.93
2022-08-01T00:44:38.985Z,21.94
2022-08-01T00:47:06.239Z,21.91
2022-08-01T00:49:33.248Z,21.89
2022-08-01T00:52:00.793Z,21.86
2022-08-01T00:54:28.456Z,21.83
2022-08-01T00:56:56.107Z,21.81
2022-08-01T00:59:25.824Z,21.78
2022-08-01T01:01:53.646Z,21.72
2022-08-01T01:04:20.640Z,21.72
2022-08-01T01:07:05.677Z,21.70
2022-08-01T01:09:32.297Z,21.57
2022-08-01T01:12:09.856Z,21.61
2022-08-01T01:14:58.036Z,21.59
2022-08-01T01:17:50.931Z,21.55
2022-08-01T01:20:19.406Z,21.53
2022-08-01T01:22:54.768Z,21.50
2022-08-01T01:25:40.896Z,21.47
2022-08-01T01:28:18.515Z,21.43
2022-08-01T01:30:49.994Z,21.39
2022-08-01T01:33:18.271Z,21.39
2022-08-01T01:35:53.664Z,21.38
2022-08-01T01:38:27.436Z,21.37
2022-08-01T01:40:56.292Z,21.35
2022-08-01T01:43:33.251Z,21.32
2022-08-01T01:46:01.780Z,21.18
2022-08-01T01:48:29.946Z,21.21
2022-08-01T01:50:58.685Z,21.20
2022-08-01T01:53:28.146Z,21.21
2022-08-01T01:55:58.997Z,21.21
2022-08-01T01:58:28.813Z,21.20
2022-08-01T02:00:59.756Z,21.11
2022-08-01T02:03:30.831Z,21.11
2022-08-01T02:05:58.261Z,21.15
2022-08-01T02:08:25.783Z,21.14
2022-08-01T02:11:14.552Z,21.13
2022-08-01T02:13:42.934Z,21.11
2022-08-01T02:16:12.266Z,21.10
2022-08-01T02:18:42.971Z,21.07
2022-08-01T02:21:13.241Z,21.06
2022-08-01T02:23:41.561Z,21.04
2022-08-01T02:26:11.989Z,21.03
2022-08-01T02:28:48.651Z,20.99
2022-08-01T02:31:20.356Z,20.84
2022-08-01T02:34:09.577Z,20.91
2022-08-01T02:36:37.696Z,20.90
2022-08-01T02:39:17.315Z,20.89
2022-08-01T02:41:48.944Z,20.86
2022-08-01T02:44:28.832Z,20.86
2022-08-01T02:47:03.549Z,20.85
2022-08-01T02:49:39.016Z,20.83
2022-08-01T02:52:09.663Z,20.81
2022-08-01T02:54:38.483Z,20.80
2022-08-01T02:57:07.591Z,20.78
2022-08-01T02:59:41.304Z,20.74
2022-08-01T03:02:09.919Z,20.72
2022-08-01T03:04:39.399Z,20.70
2022-08-01T03:07:08.657Z,20.68
2022-08-01T03:09:39.996Z,20.66
2022-08-01T03:12:11.574Z,20.63
2022-08-01T03:14:42.160Z,20.62
2022-08-01T03:17:10.514Z,20.59
2022-08-01T03:19:39.390Z,20.58
2022-08-01T03:22:12.627Z,20.55
2022-08-01T03:24:41.627Z,20.49
2022-08-01T03:27:09.771Z,20.45
2022-08-01T03:29:40.118Z,20.44
2022-08-01T03:32:08.373Z,20.41
2022-08-01T03:34:35.347Z,20.39
2022-08-01T03:37:11.896Z,20.38
2022-08-01T03:39:46.061Z,20.37
2022-08-01T03:42:17.114Z,20.36
2022-08-01T03:44:54.223Z,20.33
2022-08-01T03:47:26.367Z,20.29
2022-08-01T03:49:55.407Z,20.29
2022-08-01T03:52:23.359Z,20.27
2022-08-01T03:54:57.419Z,20.24
2022-08-01T03:57:35.775Z,20.24
2022-08-01T04:00:08.522Z,20.22
2022-08-01T04:02:36.243Z,20.21
2022-08-01T04:05:04.334Z,20.18
2022-08-01T04:07:33.483Z,20.17
2022-08-01T04:10:00.328Z,20.14
2022-08-01T04:12:27.310Z,20.14
2022-08-01T04:14:54.388Z,20.11
2022-08-01T04:17:21.633Z,19.88
2022-08-01T04:19:48.661Z,19.99
2022-08-01T04:22:16.834Z,20.02
2022-08-01T04:24:56.507Z,20.03
2022-08-01T04:27:48.541Z,20.02
2022-08-01T04:30:20.175Z,19.99
2022-08-01T04:32:49.151Z,19.98
2022-08-01T04:35:22.519Z,19.93
2022-08-01T04:37:54.802Z,19.95
2022-08-01T04:40:24.877Z,19.94
2022-08-01T04:42:51.997Z,19.94
2022-08-01T04:45:19.652Z,19.92
2022-08-01T04:47:48.219Z,19.91
2022-08-01T04:50:15.225Z,19.90
2022-08-01T04:52:43.194Z,19.90
2022-08-01T04:55:11.193Z,19.88
2022-08-01T04:57:44.285Z,19.89
2022-08-01T05:00:11.780Z,19.88
2022-08-01T05:02:39.151Z,19.87
2022-08-01T05:05:09.869Z,19.85
2022-08-01T05:07:44.833Z,19.84
2022-08-01T05:10:12.813Z,19.83
2022-08-01T05:12:39.792Z,19.83
2022-08-01T05:15:11.691Z,19.82
2022-08-01T05:17:43.614Z,19.81
2022-08-01T05:20:12.591Z,19.79
2022-08-01T05:22:42.181Z,19.79
2022-08-01T05:25:09.248Z,19.79
2022-08-01T05:27:41.685Z,19.76
2022-08-01T05:30:10.200Z,19.75
2022-08-01T05:32:37.527Z,19.74
2022-08-01T05:35:05.581Z,19.72
2022-08-01T05:37:32.541Z,19.71
2022-08-01T05:39:59.277Z,19.72
2022-08-01T05:42:26.071Z,19.72
2022-08-01T05:44:53.295Z,19.72
2022-08-01T05:47:20.259Z,19.71
2022-08-01T05:49:47.382Z,19.70
2022-08-01T05:52:14.269Z,19.69
2022-08-01T05:54:41.369Z,19.69
2022-08-01T05:57:08.525Z,19.63
2022-08-01T05:59:35.625Z,19.69
2022-08-01T06:02:02.751Z,19.69
2022-08-01T06:04:29.808Z,19.39
2022-08-01T06:06:56.964Z,19.43
2022-08-01T06:09:24.051Z,19.55
2022-08-01T06:11:51.218Z,19.57
2022-08-01T06:14:18.275Z,19.46
2022-08-01T06:16:45.395Z,19.40
2022-08-01T06:19:13.098Z,19.56
2022-08-01T06:21:40.023Z,19.51
2022-08-01T06:24:07.007Z,19.56
2022-08-01T06:26:33.783Z,19.66
2022-08-01T06:29:00.639Z,19.70
2022-08-01T06:31:31.776Z,19.66
2022-08-01T06:34:00.249Z,19.75
2022-08-01T06:36:26.981Z,19.72
2022-08-01T06:38:53.794Z,19.78
2022-08-01T06:41:23.389Z,19.70
2022-08-01T06:43:50.101Z,19.64
2022-08-01T06:46:16.945Z,19.71
2022-08-01T06:48:43.789Z,19.72
2022-08-01T06:51:17.808Z,19.73
2022-08-01T06:53:45.000Z,19.76
2022-08-01T06:56:11.884Z,19.81
2022-08-01T06:58:39.301Z,19.80
2022-08-01T07:01:09.611Z,19.89
2022-08-01T07:03:54.038Z,19.95
2022-08-01T07:06:26.329Z,19.83
2022-08-01T07:08:54.200Z,19.90
2022-08-01T07:11:22.488Z,20.02
2022-08-01T07:13:49.575Z,19.97
2022-08-01T07:16:17.637Z,20.00
2022-08-01T07:18:44.661Z,20.00
2022-08-01T07:21:38.277Z,19.97
2022-08-01T07:23:59.139Z,20.06
2022-08-01T07:26:27.871Z,20.13
2022-08-01T07:28:54.804Z,20.17
2022-08-01T07:31:21.991Z,20.22
2022-08-01T07:33:49.540Z,20.20
2022-08-01T07:36:19.638Z,20.28
2022-08-01T07:38:47.576Z,20.35
2022-08-01T07:41:15.255Z,20.26
2022-08-01T07:43:49.299Z,20.40
2022-08-01T07:46:21.788Z,20.50
2022-08-01T07:48:49.023Z,20.53
2022-08-01T07:51:16.119Z,20.53
2022-08-01T07:53:43.252Z,20.57
2022-08-01T07:56:10.994Z,20.55
2022-08-01T07:58:38.132Z,20.60
2022-08-01T08:01:05.346Z,20.65
2022-08-01T08:03:32.493Z,20.65
2022-08-01T08:06:00.093Z,20.65
2022-08-01T08:08:28.165Z,20.65
2022-08-01T08:10:55.080Z,20.75
2022-08-01T08:13:22.272Z,20.82
2022-08-01T08:15:49.411Z,20.85
2022-08-01T08:18:17.096Z,20.80
2022-08-01T08:20:44.696Z,20.85
2022-08-01T08:23:43.137Z,20.94
2022-08-01T08:26:12.174Z,21.05
2022-08-01T08:28:40.398Z,21.04
2022-08-01T08:31:08.060Z,21.08
2022-08-01T08:33:52.883Z,21.20
2022-08-01T08:36:19.641Z,21.26
2022-08-01T08:38:46.358Z,21.23
2022-08-01T08:41:15.854Z,21.29
2022-08-01T08:43:44.805Z,21.36
2022-08-01T08:46:13.277Z,21.39
2022-08-01T08:48:41.343Z,21.34
2022-08-01T08:51:12.003Z,21.44
2022-08-01T08:53:44.933Z,21.54
2022-08-01T08:56:15.419Z,21.63
2022-08-01T08:58:45.681Z,21.60
2022-08-01T09:01:13.661Z,21.56
2022-08-01T09:03:41.628Z,21.63
2022-08-01T09:06:08.848Z,21.67
2022-08-01T09:08:36.475Z,21.80
2022-08-01T09:11:03.888Z,21.82
2022-08-01T09:13:30.958Z,21.88
2022-08-01T09:16:00.046Z,21.81
2022-08-01T09:18:33.278Z,21.88
2022-08-01T09:21:15.003Z,21.96
2022-08-01T09:23:55.951Z,21.94
2022-08-01T09:26:31.845Z,21.99
2022-08-01T09:29:00.538Z,22.14
2022-08-01T09:31:38.272Z,22.14
2022-08-01T09:34:06.123Z,22.18
2022-08-01T09:36:47.326Z,22.23
2022-08-01T09:39:15.660Z,22.16
2022-08-01T09:41:42.686Z,22.31
2022-08-01T09:44:09.890Z,22.26
2022-08-01T09:46:37.636Z,22.41
2022-08-01T09:49:10.626Z,22.46
2022-08-01T09:51:58.867Z,22.52
2022-08-01T09:54:34.596Z,22.58
2022-08-01T09:57:18.630Z,22.74
2022-08-01T09:59:58.193Z,22.70
2022-08-01T10:02:36.018Z,22.80
2022-08-01T10:05:08.260Z,22.87
2022-08-01T10:07:43.236Z,22.97
2022-08-01T10:10:17.051Z,22.95
2022-08-01T10:12:45.351Z,22.93
2022-08-01T10:15:16.184Z,23.06
2022-08-01T10:17:58.865Z,23.04
2022-08-01T10:20:30.896Z,23.12
2022-08-01T10:23:06.218Z,23.17
2022-08-01T10:25:43.601Z,23.24
2022-08-01T10:28:23.842Z,23.27
2022-08-01T10:30:52.168Z,23.33
2022-08-01T10:33:52.231Z,23.46
2022-08-01T10:36:10.776Z,23.57
2022-08-01T10:38:38.368Z,23.50
2022-08-01T10:41:09.107Z,23.44
2022-08-01T10:43:36.865Z,23.58
2022-08-01T10:46:05.888Z,23.61
2022-08-01T10:48:41.458Z,23.56
2022-08-01T10:51:17.898Z,23.66
2022-08-01T10:53:54.443Z,23.78
2022-08-01T10:56:27.169Z,23.89
2022-08-01T10:59:06.056Z,23.84
2022-08-01T11:01:38.399Z,23.63
2022-08-01T11:04:13.918Z,23.83
2022-08-01T11:07:03.247Z,23.89
2022-08-01T11:09:59.917Z,24.07
2022-08-01T11:12:43.852Z,24.12
2022-08-01T11:15:10.902Z,24.07
2022-08-01T11:17:48.909Z,24.18
2022-08-01T11:20:18.056Z,24.17
2022-08-01T11:23:03.604Z,24.31
2022-08-01T11:26:05.602Z,24.49
2022-08-01T11:28:33.827Z,24.53
2022-08-01T11:31:14.489Z,24.39
2022-08-01T11:33:41.508Z,24.39
2022-08-01T11:36:11.701Z,24.56
2022-08-01T11:38:40.940Z,24.58
2022-08-01T11:41:38.090Z,24.64
2022-08-01T11:44:12.989Z,24.82
2022-08-01T11:47:13.358Z,25.00
2022-08-01T11:49:49.014Z,25.11
2022-08-01T11:52:26.771Z,24.89
2022-08-01T11:54:56.834Z,24.89
2022-08-01T11:57:38.356Z,25.03
2022-08-01T12:00:15.352Z,25.10
2022-08-01T12:02:45.473Z,25.20
2022-08-01T12:05:15.760Z,25.19
2022-08-01T12:07:44.358Z,25.11
2022-08-01T12:10:12.698Z,25.33
2022-08-01T12:12:47.173Z,25.53
2022-08-01T12:15:14.769Z,25.66
2022-08-01T12:17:59.020Z,25.83
2022-08-01T12:20:38.152Z,25.61
2022-08-01T12:23:09.864Z,25.69
2022-08-01T12:25:38.206Z,25.73
2022-08-01T12:28:07.316Z,25.75
2022-08-01T12:30:38.245Z,25.69
2022-08-01T12:33:07.465Z,25.85
2022-08-01T12:35:37.437Z,25.79
2022-08-01T12:38:15.244Z,26.09
2022-08-01T12:40:45.610Z,26.18
2022-08-01T12:43:27.475Z,26.28
2022-08-01T12:45:57.600Z,26.41
2022-08-01T12:48:26.063Z,26.63
2022-08-01T12:50:53.660Z,26.58
2022-08-01T12:53:22.620Z,26.94
2022-08-01T12:55:58.734Z,26.86
2022-08-01T12:58:36.018Z,26.93
2022-08-01T13:01:13.302Z,27.12
2022-08-01T13:04:02.893Z,26.91
2022-08-01T13:06:30.296Z,27.07
2022-08-01T13:09:06.405Z,27.32
2022-08-01T13:11:33.292Z,27.21
2022-08-01T13:14:00.175Z,27.17
2022-08-01T13:16:55.215Z,27.50
2022-08-01T13:19:15.012Z,27.44
2022-08-01T13:21:55.475Z,27.41
2022-08-01T13:24:29.883Z,27.73
2022-08-01T13:27:02.145Z,27.32
2022-08-01T13:29:33.770Z,27.23
2022-08-01T13:32:12.724Z,27.02
2022-08-01T13:35:04.499Z,26.97
2022-08-01T13:37:31.223Z,26.99
2022-08-01T13:39:59.190Z,26.87
2022-08-01T13:42:26.108Z,26.72
2022-08-01T13:44:52.829Z,26.59
2022-08-01T13:47:19.579Z,26.55
2022-08-01T13:50:01.737Z,26.64
2022-08-01T13:52:29.340Z,26.78
2022-08-01T13:54:56.111Z,27.08
2022-08-01T13:57:23.301Z,27.06
2022-08-01T13:59:50.487Z,27.18
2022-08-01T14:02:17.680Z,27.25
2022-08-01T14:04:44.848Z,27.18
2022-08-01T14:07:14.835Z,27.09
2022-08-01T14:09:57.665Z,27.24
2022-08-01T14:12:30.398Z,27.14
2022-08-01T14:14:57.697Z,27.02
2022-08-01T14:17:25.004Z,26.88
2022-08-01T14:19:52.062Z,26.79
2022-08-01T14:22:19.425Z,26.37
2022-08-01T14:24:46.775Z,26.54
2022-08-01T14:27:14.501Z,26.49
2022-08-01T14:30:02.585Z,26.60
2022-08-01T14:32:29.090Z,26.78
2022-08-01T14:34:57.259Z,26.59
2022-08-01T14:37:28.703Z,26.58
2022-08-01T14:39:58.820Z,26.52
2022-08-01T14:42:27.024Z,26.61
2022-08-01T14:44:54.608Z,26.54
2022-08-01T14:47:22.601Z,26.50
2022-08-01T14:49:51.097Z,25.97
2022-08-01T14:52:19.005Z,25.72
2022-08-01T14:54:46.090Z,25.71
2022-08-01T14:57:13.272Z,25.59
2022-08-01T14:59:40.295Z,25.89
2022-08-01T15:02:08.594Z,25.45
2022-08-01T15:04:35.822Z,25.68
2022-08-01T15:07:02.874Z,24.86
2022-08-01T15:09:30.183Z,25.43
2022-08-01T15:11:57.204Z,25.30
2022-08-01T15:14:43.310Z,25.08
2022-08-01T15:17:10.356Z,25.37
2022-08-01T15:19:41.905Z,24.93
2022-08-01T15:22:10.112Z,24.97
2022-08-01T15:24:40.351Z,24.46
2022-08-01T15:27:07.997Z,24.56
2022-08-01T15:29:35.258Z,24.78
2022-08-01T15:32:04.720Z,23.93
2022-08-01T15:34:32.691Z,24.42
2022-08-01T15:36:59.829Z,24.12
2022-08-01T15:39:27.608Z,24.41
2022-08-01T15:41:54.626Z,24.27
2022-08-01T15:44:22.939Z,24.22
2022-08-01T15:46:50.986Z,24.17
2022-08-01T15:49:21.403Z,24.13
2022-08-01T15:51:48.468Z,24.29
2022-08-01T15:54:15.575Z,24.43
2022-08-01T15:56:42.743Z,24.33
2022-08-01T15:59:10.181Z,24.20
2022-08-01T16:01:39.358Z,24.19
2022-08-01T16:04:07.964Z,24.14
2022-08-01T16:06:37.194Z,24.12
2022-08-01T16:09:05.559Z,24.13
2022-08-01T16:11:32.495Z,24.16
2022-08-01T16:13:59.249Z,24.13
2022-08-01T16:16:26.015Z,24.12
2022-08-01T16:18:53.963Z,24.13
2022-08-01T16:21:22.614Z,24.11
2022-08-01T16:23:49.931Z,24.08
2022-08-01T16:26:28.059Z,23.91
2022-08-01T16:28:55.147Z,23.95
2022-08-01T16:32:02.872Z,23.91
2022-08-01T16:34:08.726Z,23.89
2022-08-01T16:36:36.456Z,23.90
2022-08-01T16:39:05.503Z,23.91
2022-08-01T16:41:32.851Z,23.84
2022-08-01T16:44:06.486Z,23.83
2022-08-01T16:46:33.861Z,23.84
2022-08-01T16:49:01.122Z,23.81
2022-08-01T16:51:28.154Z,23.77
2022-08-01T16:53:59.769Z,23.75
2022-08-01T16:56:26.725Z,23.67
2022-08-01T16:58:53.448Z,23.64
2022-08-01T17:01:59.167Z,23.43
2022-08-01T17:04:07.038Z,23.30
2022-08-01T17:06:33.845Z,23.28
2022-08-01T17:09:00.566Z,23.34
2022-08-01T17:11:27.401Z,23.36
2022-08-01T17:13:54.111Z,23.34
2022-08-01T17:16:21.082Z,23.37
2022-08-01T17:18:47.918Z,23.30
2022-08-01T17:21:15.071Z,23.29
2022-08-01T17:23:41.772Z,23.07
2022-08-01T17:26:08.611Z,23.17
2022-08-01T17:28:35.392Z,23.19
2022-08-01T17:31:02.231Z,23.16
2022-08-01T17:33:44.735Z,22.98
2022-08-01T17:36:13.482Z,22.94
2022-08-01T17:38:40.243Z,22.96
2022-08-01T17:41:07.204Z,22.96
2022-08-01T17:43:33.938Z,22.98
2022-08-01T17:46:00.820Z,22.98
2022-08-01T17:48:28.350Z,23.00
2022-08-01T17:50:55.462Z,22.90
2022-08-01T17:53:24.056Z,22.83
2022-08-01T17:55:55.374Z,22.86
2022-08-01T17:58:49.951Z,22.84
2022-08-01T18:01:17.026Z,22.83
2022-08-01T18:03:44.449Z,22.79
2022-08-01T18:06:23.455Z,22.72
2022-08-01T18:08:55.430Z,22.73
2022-08-01T18:11:24.646Z,22.70
2022-08-01T18:13:53.940Z,22.43
2022-08-01T18:16:21.222Z,22.57
2022-08-01T18:18:48.755Z,22.59
2022-08-01T18:21:15.463Z,22.60
2022-08-01T18:23:51.445Z,22.58
2022-08-01T18:26:20.642Z,22.58
2022-08-01T18:28:47.507Z,22.56
2022-08-01T18:31:17.074Z,22.55
2022-08-01T18:33:44.113Z,22.40
2022-08-01T18:36:16.131Z,22.44
2022-08-01T18:38:58.653Z,22.44
2022-08-01T18:41:25.717Z,22.42
2022-08-01T18:43:52.550Z,22.40
2022-08-01T18:46:31.128Z,22.39
2022-08-01T18:48:58.316Z,22.37
2022-08-01T18:51:26.601Z,22.34
2022-08-01T18:53:55.868Z,22.34
2022-08-01T18:56:22.650Z,22.31
2022-08-01T18:58:49.515Z,22.28
2022-08-01T19:01:16.464Z,22.26
2022-08-01T19:03:43.352Z,22.25
2022-08-01T19:06:10.469Z,22.21
2022-08-01T19:08:38.368Z,22.20
2022-08-01T19:11:05.954Z,22.16
2022-08-01T19:13:33.569Z,22.12
2022-08-01T19:16:00.566Z,22.11
2022-08-01T19:18:28.518Z,22.09
2022-08-01T19:20:55.450Z,22.04
2022-08-01T19:23:41.114Z,21.97
2022-08-01T19:26:12.779Z,21.99
2022-08-01T19:28:46.893Z,21.99
2022-08-01T19:31:14.852Z,21.94
2022-08-01T19:33:42.085Z,21.89
2022-08-01T19:36:14.003Z,21.83
2022-08-01T19:38:41.751Z,21.83
2022-08-01T19:41:09.036Z,21.83
2022-08-01T19:43:42.463Z,21.85
2022-08-01T19:46:17.680Z,21.79
2022-08-01T19:48:48.531Z,21.79
2022-08-01T19:51:20.256Z,21.75
2022-08-01T19:53:50.742Z,21.75
2022-08-01T19:56:22.900Z,21.74
2022-08-01T19:58:52.905Z,21.72
2022-08-01T20:01:27.008Z,21.69
2022-08-01T20:03:55.049Z,21.68
2022-08-01T20:06:24.390Z,21.63
2022-08-01T20:08:54.526Z,21.63
2022-08-01T20:11:23.488Z,21.62
2022-08-01T20:13:51.155Z,21.59
2022-08-01T20:16:18.289Z,21.58
2022-08-01T20:18:45.358Z,21.55
2022-08-01T20:21:12.943Z,21.53
2022-08-01T20:23:41.488Z,21.51
2022-08-01T20:26:09.834Z,21.45
2022-08-01T20:28:41.942Z,21.32
2022-08-01T20:31:10.617Z,21.10
2022-08-01T20:33:42.217Z,21.27
2022-08-01T20:36:12.297Z,21.18
2022-08-01T20:38:53.693Z,20.41
2022-08-01T20:41:26.004Z,20.05
2022-08-01T20:43:55.291Z,20.42
2022-08-01T20:46:26.587Z,20.48
2022-08-01T20:48:55.644Z,20.21
2022-08-01T20:51:26.657Z,20.53
2022-08-01T20:53:54.857Z,20.53
2022-08-01T20:56:40.594Z,20.74
2022-08-01T20:59:39.589Z,20.80
2022-08-01T21:02:36.978Z,20.65
2022-08-01T21:05:11.037Z,20.33
2022-08-01T21:07:56.383Z,20.50
2022-08-01T21:10:26.125Z,20.51
2022-08-01T21:13:04.088Z,20.40
2022-08-01T21:15:33.139Z,20.24
2022-08-01T21:18:07.509Z,20.14
2022-08-01T21:20:39.024Z,20.24
2022-08-01T21:23:20.875Z,19.96
2022-08-01T21:25:48.084Z,19.96
2022-08-01T21:28:18.368Z,20.20
2022-08-01T21:30:53.884Z,19.94
2022-08-01T21:33:24.702Z,19.94
2022-08-01T21:35:58.348Z,20.14
2022-08-01T21:38:28.022Z,20.14
2022-08-01T21:40:55.572Z,19.76
2022-08-01T21:43:23.109Z,20.00
2022-08-01T21:45:57.920Z,20.09
2022-08-01T21:48:26.875Z,20.03
2022-08-01T21:51:05.743Z,20.09
2022-08-01T21:53:54.701Z,20.12
2022-08-01T21:56:28.087Z,20.11
2022-08-01T21:59:22.304Z,19.96
2022-08-01T22:01:56.997Z,19.97
2022-08-01T22:04:49.477Z,20.01
2022-08-01T22:07:18.152Z,20.01
2022-08-01T22:09:48.341Z,19.97
2022-08-01T22:12:19.730Z,19.89
2022-08-01T22:14:48.625Z,19.80
2022-08-01T22:17:21.395Z,19.85
2022-08-01T22:19:53.539Z,19.85
2022-08-01T22:22:50.936Z,19.77
2022-08-01T22:25:12.052Z,19.81
2022-08-01T22:28:08.692Z,19.75
2022-08-01T22:30:29.222Z,19.75
2022-08-01T22:33:07.123Z,19.76
2022-08-01T22:35:43.824Z,19.74
2022-08-01T22:38:10.637Z,19.69
2022-08-01T22:40:43.370Z,19.67
2022-08-01T22:43:23.647Z,19.68
2022-08-01T22:46:19.621Z,19.63
2022-08-01T22:48:51.974Z,19.61
2022-08-01T22:51:33.731Z,19.62
2022-08-01T22:54:06.450Z,19.58
2022-08-01T22:56:39.295Z,19.51
2022-08-01T22:59:14.632Z,19.51
2022-08-01T23:01:48.562Z,19.35
2022-08-01T23:04:39.814Z,19.32
2022-08-01T23:07:08.295Z,19.30
2022-08-01T23:09:53.618Z,19.32
2022-08-01T23:12:25.827Z,19.26
2022-08-01T23:14:54.529Z,19.19
2022-08-01T23:17:27.040Z,19.22
2022-08-01T23:20:00.554Z,19.07
2022-08-01T23:22:33.261Z,19.08
2022-08-01T23:25:04.467Z,19.07
2022-08-01T23:27:51.625Z,19.06
2022-08-01T23:30:31.575Z,19.01
2022-08-01T23:32:59.172Z,18.94
2022-08-01T23:35:26.371Z,18.96
2022-08-01T23:37:58.485Z,18.96
2022-08-01T23:40:29.860Z,18.91
2022-08-01T23:42:56.704Z,18.92
2022-08-01T23:45:23.899Z,18.92
2022-08-01T23:47:51.517Z,18.88
2022-08-01T23:50:18.299Z,18.82
2022-08-01T23:52:48.530Z,18.83
2022-08-01T23:55:33.373Z,18.79
2022-08-01T23:58:06.154Z,18.74
